Time;durP1;ratioP1;P1;durP2;ratioP2;P2;SDS_P1;SDS_P2;PMS_P1;PMS_P2;Temp;Humidity;BMP_temperature;BMP_pressure;BME280_temperature;BME280_humidity;BME280_pressure;Samples;Min_cycle;Max_cycle;Signal;HPM_P1;HPM_P2
2022/10/12 00:00:49;;;;;;;3.95;2.65;;;6.40;99.90;;;;;;5097099;28;20101;-70
2022/10/12 00:03:16;;;;;;;5.38;2.80;;;6.30;99.90;;;;;;5064850;28;20037;-70
2022/10/12 00:05:42;;;;;;;5.05;2.50;;;6.30;99.90;;;;;;5064289;28;20056;-70
2022/10/12 00:08:08;;;;;;;4.28;2.60;;;6.30;99.90;;;;;;5065455;28;20041;-70
2022/10/12 00:10:40;;;;;;;5.20;2.65;;;6.30;99.90;;;;;;5064757;28;20093;-72
2022/10/12 00:13:05;;;;;;;7.28;2.75;;;6.40;99.90;;;;;;5063745;28;20040;-70
2022/10/12 00:15:31;;;;;;;5.63;2.75;;;6.40;99.90;;;;;;5062431;28;20231;-70
2022/10/12 00:17:57;;;;;;;6.97;3.95;;;6.50;99.90;;;;;;5096741;28;20052;-70
2022/10/12 00:20:22;;;;;;;6.28;3.03;;;6.60;99.90;;;;;;5060773;28;20048;-70
2022/10/12 00:22:48;;;;;;;5.22;2.85;;;6.70;99.90;;;;;;5063317;28;20037;-69
2022/10/12 00:25:14;;;;;;;6.70;2.90;;;6.70;99.90;;;;;;5062948;28;20044;-70
2022/10/12 00:27:39;;;;;;;6.45;2.65;;;6.70;99.90;;;;;;5064478;28;20108;-70
2022/10/12 00:30:05;;;;;;;3.92;2.55;;;6.60;99.90;;;;;;5064223;28;20076;-70
2022/10/12 00:32:31;;;;;;;3.97;2.55;;;6.60;99.90;;;;;;5064369;28;20056;-70
2022/10/12 00:34:57;;;;;;;4.90;2.40;;;6.70;99.90;;;;;;5063733;28;20037;-69
2022/10/12 00:37:22;;;;;;;5.32;3.05;;;6.60;99.90;;;;;;5096352;28;20434;-70
2022/10/12 00:39:48;;;;;;;8.25;3.03;;;6.60;99.90;;;;;;5063982;28;20044;-71
2022/10/12 00:42:14;;;;;;;9.30;3.40;;;6.60;99.90;;;;;;5062469;28;20068;-70
2022/10/12 00:44:46;;;;;;;8.70;3.30;;;6.60;99.90;;;;;;5061400;28;20135;-71
2022/10/12 00:47:36;;;;;;;6.03;2.88;;;6.60;99.90;;;;;;5095575;28;20052;-71
2022/10/12 00:50:17;;;;;;;;;;;6.60;99.90;;;;;;5063977;28;20067;-71
2022/10/12 00:52:42;;;;;;;;;;;6.40;99.90;;;;;;5063985;28;19987;-70
2022/10/12 00:55:11;;;;;;;4.22;2.72;;;6.50;99.90;;;;;;5062534;28;20306;-71
2022/10/12 00:57:37;;;;;;;7.15;2.80;;;6.30;99.90;;;;;;5062617;28;20044;-71
2022/10/12 01:00:08;;;;;;;5.40;2.67;;;6.30;99.90;;;;;;5063643;28;20392;-71
2022/10/12 01:02:36;;;;;;;5.88;2.83;;;6.30;99.90;;;;;;5044652;28;20055;-71
2022/10/12 01:05:03;;;;;;;5.57;3.08;;;6.40;99.90;;;;;;5063299;28;20122;-71
2022/10/12 01:07:29;;;;;;;4.43;2.55;;;6.40;99.90;;;;;;5065116;28;20049;-71
2022/10/12 01:09:54;;;;;;;4.32;3.05;;;6.30;99.90;;;;;;5095633;28;20045;-71
2022/10/12 01:12:21;;;;;;;3.50;2.42;;;6.30;99.90;;;;;;5063459;28;20082;-70
2022/10/12 01:14:47;;;;;;;6.10;3.17;;;6.20;99.90;;;;;;5063417;28;20049;-71
2022/10/12 01:17:24;;;;;;;6.53;2.63;;;6.10;99.90;;;;;;5063503;28;20059;-70
2022/10/12 01:20:27;;;;;;;4.95;2.42;;;6.10;99.90;;;;;;5060102;28;20052;-70
2022/10/12 01:23:08;;;;;;;4.10;2.75;;;6.00;99.90;;;;;;5047414;28;20141;-70
2022/10/12 01:26:15;;;;;;;5.53;2.65;;;5.90;99.90;;;;;;5062901;28;20075;-71
2022/10/12 01:28:50;;;;;;;6.03;2.80;;;6.00;99.90;;;;;;5062761;28;20053;-70
2022/10/12 01:31:34;;;;;;;6.00;3.15;;;6.00;99.90;;;;;;5063261;28;20604;-70
2022/10/12 01:34:14;;;;;;;7.10;3.13;;;6.10;99.90;;;;;;5064968;28;20578;-70
2022/10/12 01:36:44;;;;;;;6.78;4.03;;;6.20;99.90;;;;;;5056174;28;20065;-70
2022/10/12 01:39:30;;;;;;;6.30;3.22;;;6.20;99.90;;;;;;5065943;28;20040;-70
2022/10/12 01:42:01;;;;;;;6.53;2.80;;;6.20;99.90;;;;;;5063084;28;20052;-70
2022/10/12 01:44:28;;;;;;;7.20;3.13;;;6.20;99.90;;;;;;5062888;28;20049;-70
2022/10/12 01:46:55;;;;;;;12.18;3.55;;;6.10;99.90;;;;;;5064654;28;20069;-70
2022/10/12 01:49:27;;;;;;;5.32;3.45;;;6.10;99.90;;;;;;5061777;28;20041;-70
2022/10/12 01:52:20;;;;;;;3.47;2.45;;;6.20;99.90;;;;;;5062807;28;20045;-70
2022/10/12 01:55:07;;;;;;;2.55;2.35;;;6.10;99.90;;;;;;5056624;28;20054;-70
2022/10/12 01:57:51;;;;;;;5.07;2.83;;;5.90;99.90;;;;;;5092893;28;20070;-70
2022/10/12 02:00:18;;;;;;;3.05;2.42;;;5.90;99.90;;;;;;5093228;28;20095;-70
2022/10/12 02:02:55;;;;;;;3.35;2.38;;;5.90;99.90;;;;;;5063696;28;20037;-70
2022/10/12 02:05:30;;;;;;;5.45;3.00;;;5.90;99.90;;;;;;5063471;28;20048;-70
2022/10/12 02:08:13;;;;;;;5.90;3.72;;;5.90;99.90;;;;;;5096918;28;20174;-70
2022/10/12 02:10:50;;;;;;;5.57;3.10;;;6.00;99.90;;;;;;5060270;28;20135;-70
2022/10/12 02:13:19;;;;;;;4.57;3.40;;;6.00;99.90;;;;;;5063154;28;20045;-70
2022/10/12 02:15:47;;;;;;;5.80;3.72;;;6.10;99.90;;;;;;5091054;28;20065;-70
2022/10/12 02:18:17;;;;;;;8.05;3.80;;;6.20;99.90;;;;;;5064281;28;20067;-70
2022/10/12 02:20:50;;;;;;;7.68;4.00;;;6.20;99.90;;;;;;5063129;28;20056;-70
2022/10/12 02:23:17;;;;;;;5.13;3.30;;;6.30;99.90;;;;;;5096055;28;20498;-70
2022/10/12 02:25:44;;;;;;;5.40;3.35;;;6.30;99.90;;;;;;5096413;28;20131;-70
2022/10/12 02:28:13;;;;;;;8.70;4.55;;;6.30;99.90;;;;;;5061935;28;20064;-70
2022/10/12 02:31:02;;;;;;;9.68;4.18;;;6.20;99.90;;;;;;5070525;28;20080;-69
2022/10/12 02:33:55;;;;;;;7.30;3.88;;;6.20;99.90;;;;;;5090557;28;20076;-70
2022/10/12 02:36:52;;;;;;;9.63;3.90;;;6.30;99.90;;;;;;5053745;28;20060;-70
2022/10/12 02:39:30;;;;;;;8.32;3.55;;;6.30;99.90;;;;;;5016704;28;20053;-70
2022/10/12 02:42:04;;;;;;;7.57;3.63;;;6.40;99.90;;;;;;5006097;28;20425;-70
2022/10/12 02:44:35;;;;;;;9.10;3.33;;;6.30;99.90;;;;;;5026440;28;20061;-70
2022/10/12 02:47:03;;;;;;;7.25;4.00;;;6.30;99.90;;;;;;5008534;28;20052;-70
2022/10/12 02:49:30;;;;;;;7.30;3.58;;;6.20;99.90;;;;;;5012275;28;20549;-70
2022/10/12 02:51:57;;;;;;;6.25;3.42;;;6.20;99.90;;;;;;5017398;28;20046;-70
2022/10/12 02:54:23;;;;;;;4.97;3.30;;;6.20;99.90;;;;;;5015256;28;20239;-70
2022/10/12 02:56:48;;;;;;;10.80;4.20;;;6.20;99.90;;;;;;5032157;28;20116;-70
2022/10/12 02:59:16;;;;;;;7.18;3.88;;;6.20;99.90;;;;;;5014394;28;20186;-70
2022/10/12 03:01:42;;;;;;;5.70;3.60;;;6.20;99.90;;;;;;5008002;28;20050;-70
2022/10/12 03:04:08;;;;;;;9.43;4.35;;;6.20;99.90;;;;;;5015076;28;20076;-71
2022/10/12 03:06:33;;;;;;;5.75;4.43;;;6.30;99.90;;;;;;5014821;28;20509;-71
2022/10/12 03:09:00;;;;;;;5.88;3.90;;;6.30;99.90;;;;;;5008225;28;20092;-71
2022/10/12 03:11:26;;;;;;;4.28;3.63;;;6.30;99.90;;;;;;5024179;28;20053;-71
2022/10/12 03:13:54;;;;;;;5.55;3.70;;;6.30;99.90;;;;;;5008863;28;20049;-71
2022/10/12 03:16:20;;;;;;;7.05;4.13;;;6.30;99.90;;;;;;5049659;28;20052;-71
2022/10/12 03:18:45;;;;;;;5.60;3.88;;;6.30;99.90;;;;;;5064361;28;20057;-71
2022/10/12 03:21:11;;;;;;;5.70;4.00;;;6.30;99.90;;;;;;5104476;28;20040;-71
2022/10/12 03:23:38;;;;;;;9.00;3.90;;;6.30;99.90;;;;;;5063772;28;20052;-71
2022/10/12 03:26:04;;;;;;;6.20;3.53;;;6.30;99.90;;;;;;5064554;28;20045;-71
2022/10/12 03:28:30;;;;;;;4.10;3.08;;;6.20;99.90;;;;;;5066124;28;20041;-71
2022/10/12 03:30:56;;;;;;;5.90;2.85;;;6.10;99.90;;;;;;5098561;28;20079;-71
2022/10/12 03:33:22;;;;;;;3.38;2.58;;;6.00;99.90;;;;;;5098700;28;20037;-71
2022/10/12 03:35:48;;;;;;;6.82;2.63;;;5.90;99.90;;;;;;5066580;28;20070;-71
2022/10/12 03:38:16;;;;;;;4.95;3.00;;;5.90;99.90;;;;;;5099283;28;20512;-71
2022/10/12 03:40:42;;;;;;;5.70;3.60;;;5.70;99.90;;;;;;5067254;28;20076;-71
2022/10/12 03:43:08;;;;;;;6.18;3.22;;;5.70;99.90;;;;;;5047205;28;20067;-71
2022/10/12 03:45:34;;;;;;;7.25;3.30;;;5.60;99.90;;;;;;5065539;28;20045;-71
2022/10/12 03:48:00;;;;;;;4.55;2.80;;;5.50;99.90;;;;;;5063795;28;20041;-71
2022/10/12 03:50:26;;;;;;;6.30;3.15;;;5.50;99.90;;;;;;5065221;28;20049;-71
2022/10/12 03:52:52;;;;;;;4.80;3.17;;;5.40;99.90;;;;;;5096337;28;20069;-71
2022/10/12 03:55:17;;;;;;;5.75;3.55;;;5.40;99.90;;;;;;5065397;28;20069;-71
2022/10/12 03:57:44;;;;;;;7.55;3.10;;;5.40;99.90;;;;;;5064791;28;20097;-71
2022/10/12 04:00:12;;;;;;;4.20;2.75;;;5.30;99.90;;;;;;5064520;28;20057;-71
2022/10/12 04:02:38;;;;;;;4.68;3.50;;;5.40;99.90;;;;;;5064170;28;20056;-71
2022/10/12 04:05:04;;;;;;;3.30;3.00;;;5.30;99.90;;;;;;5065135;28;20037;-71
2022/10/12 04:07:30;;;;;;;3.35;2.95;;;5.20;99.90;;;;;;5065546;28;20057;-71
2022/10/12 04:09:56;;;;;;;4.45;3.17;;;5.30;99.90;;;;;;5065554;28;20045;-71
2022/10/12 04:12:21;;;;;;;3.67;3.05;;;5.30;99.90;;;;;;5063287;28;20053;-71
2022/10/12 04:14:47;;;;;;;3.70;2.58;;;5.30;99.90;;;;;;5062001;28;20409;-71
2022/10/12 04:17:16;;;;;;;5.95;3.20;;;5.30;99.90;;;;;;5063022;28;20054;-71
2022/10/12 04:19:42;;;;;;;4.43;3.17;;;5.30;99.90;;;;;;5064709;28;20045;-71
2022/10/12 04:22:08;;;;;;;4.70;3.47;;;5.30;99.90;;;;;;5067141;28;20040;-71
2022/10/12 04:24:33;;;;;;;7.63;3.47;;;5.30;99.90;;;;;;5064014;28;20072;-71
2022/10/12 04:26:59;;;;;;;5.35;3.88;;;5.30;99.90;;;;;;5065054;28;20045;-71
2022/10/12 04:29:25;;;;;;;5.28;4.05;;;5.30;99.90;;;;;;5064323;28;20048;-71
2022/10/12 04:31:50;;;;;;;7.70;4.88;;;5.20;99.90;;;;;;5064829;28;20049;-71
2022/10/12 04:34:16;;;;;;;6.65;5.00;;;5.20;99.90;;;;;;5065224;28;20553;-71
2022/10/12 04:36:42;;;;;;;7.63;4.93;;;5.30;99.90;;;;;;5096468;28;20053;-72
2022/10/12 04:39:07;;;;;;;5.82;5.10;;;5.30;99.90;;;;;;5063589;28;20080;-71
2022/10/12 04:41:33;;;;;;;8.95;5.10;;;5.30;99.90;;;;;;5064982;28;20070;-72
2022/10/12 04:43:59;;;;;;;6.38;4.30;;;5.20;99.90;;;;;;5063000;28;20386;-71
2022/10/12 04:46:25;;;;;;;5.55;3.50;;;5.20;99.90;;;;;;5061905;28;20048;-71
2022/10/12 04:48:51;;;;;;;4.95;3.50;;;5.20;99.90;;;;;;5096349;28;20041;-71
2022/10/12 04:51:17;;;;;;;4.95;3.72;;;5.30;99.90;;;;;;5064810;28;20041;-71
2022/10/12 04:53:43;;;;;;;5.28;3.38;;;5.30;99.90;;;;;;5060695;28;20048;-70
2022/10/12 04:56:08;;;;;;;4.90;4.00;;;5.40;99.90;;;;;;5064133;28;20037;-70
2022/10/12 04:58:34;;;;;;;4.88;4.07;;;5.30;99.90;;;;;;5062443;28;20048;-70
2022/10/12 05:01:00;;;;;;;5.43;4.03;;;5.40;99.90;;;;;;5062624;28;20056;-70
2022/10/12 05:03:25;;;;;;;5.28;3.40;;;5.40;99.90;;;;;;5058187;28;20045;-70
2022/10/12 05:05:51;;;;;;;4.85;3.70;;;5.40;99.90;;;;;;5064605;28;20041;-70
2022/10/12 05:08:17;;;;;;;7.10;4.40;;;5.40;99.90;;;;;;5065079;28;20037;-70
2022/10/12 05:10:43;;;;;;;7.45;4.57;;;5.40;99.90;;;;;;5063082;28;20057;-70
2022/10/12 05:13:12;;;;;;;4.55;3.78;;;5.50;99.90;;;;;;5062442;28;20181;-70
2022/10/12 05:15:39;;;;;;;6.72;4.40;;;5.40;99.90;;;;;;5061656;28;20063;-70
2022/10/12 05:18:05;;;;;;;7.25;4.80;;;5.30;99.90;;;;;;5062788;28;20072;-71
2022/10/12 05:20:31;;;;;;;6.85;4.40;;;5.30;99.90;;;;;;5030694;28;20072;-70
2022/10/12 05:22:57;;;;;;;7.25;4.13;;;5.20;99.90;;;;;;5059191;28;20085;-70
2022/10/12 05:25:23;;;;;;;7.07;4.72;;;5.10;99.90;;;;;;5063982;28;20041;-73
2022/10/12 05:27:48;;;;;;;10.35;5.78;;;5.20;99.90;;;;;;5060363;28;20033;-72
2022/10/12 05:30:14;;;;;;;6.72;4.65;;;5.00;99.90;;;;;;5051372;28;20085;-68
2022/10/12 05:32:42;;;;;;;7.75;5.22;;;5.00;99.90;;;;;;5002341;28;20077;-67
2022/10/12 05:35:09;;;;;;;5.10;3.78;;;4.90;99.90;;;;;;5042783;28;20097;-68
2022/10/12 05:37:34;;;;;;;3.72;3.13;;;5.00;99.90;;;;;;5044697;28;20049;-68
2022/10/12 05:40:00;;;;;;;4.10;3.70;;;4.90;99.90;;;;;;5041257;28;20101;-68
2022/10/12 05:42:26;;;;;;;4.50;3.35;;;5.00;99.90;;;;;;5040481;28;20484;-68
2022/10/12 05:44:52;;;;;;;4.82;3.97;;;5.10;99.90;;;;;;5041081;28;20056;-68
2022/10/12 05:47:17;;;;;;;3.85;3.42;;;5.10;99.90;;;;;;5042030;28;20744;-68
2022/10/12 05:49:43;;;;;;;3.30;3.00;;;5.10;99.90;;;;;;5042285;28;20037;-69
2022/10/12 05:52:09;;;;;;;3.60;3.03;;;4.90;99.90;;;;;;5041867;28;20049;-67
2022/10/12 05:54:34;;;;;;;2.97;2.58;;;4.90;99.90;;;;;;5041544;28;20037;-68
2022/10/12 05:57:00;;;;;;;3.25;2.95;;;4.80;99.90;;;;;;5039587;28;20041;-69
2022/10/12 05:59:26;;;;;;;4.10;3.05;;;4.80;99.90;;;;;;5038313;28;20060;-68
2022/10/12 06:01:52;;;;;;;3.00;2.75;;;4.70;99.90;;;;;;5038469;28;20049;-68
2022/10/12 06:04:18;;;;;;;2.63;2.42;;;4.60;99.90;;;;;;5037951;28;20042;-67
2022/10/12 06:06:43;;;;;;;3.65;2.70;;;4.60;99.90;;;;;;5040053;28;20567;-65
2022/10/12 06:09:11;;;;;;;4.47;3.78;;;4.50;99.90;;;;;;5038851;28;20037;-67
2022/10/12 06:11:37;;;;;;;4.20;3.63;;;4.50;99.90;;;;;;5020268;28;20038;-66
2022/10/12 06:14:03;;;;;;;4.90;4.40;;;4.60;99.90;;;;;;5019604;28;20112;-66
2022/10/12 06:16:29;;;;;;;4.90;4.40;;;4.70;99.90;;;;;;5027061;28;20056;-67
2022/10/12 06:18:54;;;;;;;5.15;4.40;;;4.70;99.90;;;;;;5016368;28;20053;-66
2022/10/12 06:21:20;;;;;;;4.47;4.07;;;4.70;99.90;;;;;;5048683;28;20048;-66
2022/10/12 06:23:46;;;;;;;4.80;4.38;;;4.60;99.90;;;;;;5055263;28;20052;-65
2022/10/12 06:26:11;;;;;;;4.47;4.07;;;4.60;99.90;;;;;;5027513;28;20093;-66
2022/10/12 06:28:37;;;;;;;6.20;4.22;;;4.60;99.90;;;;;;5047265;28;20590;-66
2022/10/12 06:31:03;;;;;;;5.25;4.63;;;4.60;99.90;;;;;;5031546;28;20322;-66
2022/10/12 06:33:29;;;;;;;4.65;4.10;;;4.70;99.90;;;;;;5034843;28;20685;-65
2022/10/12 06:35:55;;;;;;;4.88;4.38;;;4.70;99.90;;;;;;5041243;28;20096;-67
2022/10/12 06:38:21;;;;;;;7.75;5.85;;;4.70;99.90;;;;;;5031178;28;20048;-67
2022/10/12 06:40:47;;;;;;;4.88;4.32;;;4.80;99.90;;;;;;5032889;28;20042;-66
2022/10/12 06:43:12;;;;;;;5.38;4.03;;;4.80;99.90;;;;;;5057852;28;20063;-66
2022/10/12 06:45:39;;;;;;;7.28;4.93;;;4.80;99.90;;;;;;5037740;28;20041;-66
2022/10/12 06:48:06;;;;;;;5.13;4.60;;;4.70;99.90;;;;;;5062607;28;20057;-66
2022/10/12 06:50:32;;;;;;;5.03;4.53;;;4.70;99.90;;;;;;5065234;28;20041;-66
2022/10/12 06:52:57;;;;;;;6.82;5.65;;;4.70;99.90;;;;;;5037857;28;20086;-66
2022/10/12 06:55:23;;;;;;;6.45;5.85;;;4.70;99.90;;;;;;5037719;28;20140;-66
2022/10/12 06:57:49;;;;;;;7.85;5.95;;;4.80;99.90;;;;;;5012600;28;20064;-66
2022/10/12 07:00:15;;;;;;;7.78;7.10;;;4.80;99.90;;;;;;4987098;28;20045;-66
2022/10/12 07:02:40;;;;;;;6.72;5.30;;;4.90;99.90;;;;;;4991636;28;20308;-66
2022/10/12 07:05:07;;;;;;;7.05;6.35;;;5.00;99.90;;;;;;5025287;28;20049;-65
2022/10/12 07:07:34;;;;;;;8.45;5.88;;;5.00;99.90;;;;;;5030991;28;20056;-65
2022/10/12 07:10:00;;;;;;;10.10;6.70;;;5.10;99.90;;;;;;5038286;28;20042;-66
2022/10/12 07:12:27;;;;;;;9.00;8.07;;;5.20;99.90;;;;;;5028968;28;20057;-66
2022/10/12 07:14:53;;;;;;;9.07;8.18;;;5.20;99.90;;;;;;5036207;28;20056;-66
2022/10/12 07:17:20;;;;;;;14.55;10.85;;;5.40;99.90;;;;;;5031492;28;20041;-66
2022/10/12 07:19:45;;;;;;;11.52;8.57;;;5.50;99.90;;;;;;5039625;28;20068;-66
2022/10/12 07:22:11;;;;;;;12.68;9.82;;;5.50;99.90;;;;;;5041776;28;20072;-66
2022/10/12 07:24:37;;;;;;;12.55;9.15;;;5.60;99.90;;;;;;5018032;28;20056;-66
2022/10/12 07:27:06;;;;;;;13.40;9.57;;;5.70;99.90;;;;;;5047916;28;20054;-66
2022/10/12 07:29:33;;;;;;;10.57;8.43;;;5.80;99.90;;;;;;5022239;28;20053;-66
2022/10/12 07:31:58;;;;;;;12.45;9.15;;;5.80;99.90;;;;;;5018162;28;20053;-66
2022/10/12 07:34:25;;;;;;;9.77;8.75;;;6.00;99.90;;;;;;5024807;28;20144;-67
2022/10/12 07:36:51;;;;;;;13.10;11.35;;;6.10;99.90;;;;;;5050356;28;20153;-66
2022/10/12 07:39:16;;;;;;;16.70;10.40;;;6.20;99.90;;;;;;5038307;28;20533;-65
2022/10/12 07:41:42;;;;;;;15.60;12.20;;;6.40;99.90;;;;;;5039990;28;20628;-67
2022/10/12 07:44:09;;;;;;;16.80;10.23;;;6.50;99.90;;;;;;5027572;28;20052;-66
2022/10/12 07:46:34;;;;;;;13.25;9.18;;;6.60;99.90;;;;;;5037157;28;20049;-65
2022/10/12 07:49:00;;;;;;;15.02;9.07;;;6.70;99.90;;;;;;5027960;28;20053;-65
2022/10/12 07:51:26;;;;;;;15.27;10.18;;;6.80;99.90;;;;;;5037817;28;21073;-66
2022/10/12 07:53:51;;;;;;;18.67;9.35;;;7.00;99.90;;;;;;5040410;28;20049;-66
2022/10/12 07:56:17;;;;;;;13.18;8.68;;;7.10;99.90;;;;;;5036851;28;20076;-66
2022/10/12 07:58:53;;;;;;;28.35;10.45;;;7.20;99.90;;;;;;5040462;28;20041;-66
2022/10/12 08:01:21;;;;;;;17.25;9.60;;;7.30;99.90;;;;;;5041787;28;20053;-66
2022/10/12 08:03:48;;;;;;;16.10;8.80;;;7.40;99.90;;;;;;5040716;28;20074;-67
2022/10/12 08:06:19;;;;;;;17.52;10.02;;;7.50;99.90;;;;;;5055590;28;20509;-66
2022/10/12 08:08:45;;;;;;;16.38;9.55;;;7.60;99.90;;;;;;5051228;28;20079;-66
2022/10/12 08:11:11;;;;;;;16.40;8.80;;;7.70;99.90;;;;;;5056700;28;20087;-65
2022/10/12 08:13:37;;;;;;;24.42;11.80;;;7.70;99.90;;;;;;5040015;28;20073;-66
2022/10/12 08:16:05;;;;;;;14.82;9.30;;;7.90;99.90;;;;;;5049919;28;20076;-65
2022/10/12 08:18:31;;;;;;;14.43;8.70;;;8.00;99.90;;;;;;5043244;28;20041;-68
2022/10/12 08:20:57;;;;;;;18.73;9.70;;;8.10;99.90;;;;;;5052274;28;20045;-66
2022/10/12 08:23:22;;;;;;;19.00;10.55;;;8.20;99.90;;;;;;5047972;28;20075;-67
2022/10/12 08:25:55;;;;;;;16.35;9.68;;;8.20;99.90;;;;;;5056852;28;20080;-67
2022/10/12 08:28:22;;;;;;;20.23;10.20;;;8.30;99.90;;;;;;5041548;28;20079;-67
2022/10/12 08:30:48;;;;;;;15.60;9.77;;;8.50;99.90;;;;;;5047622;28;20048;-67
2022/10/12 08:33:15;;;;;;;18.63;10.73;;;8.50;99.90;;;;;;5043083;28;20045;-67
2022/10/12 08:35:42;;;;;;;22.27;10.52;;;8.60;99.90;;;;;;5039823;28;20037;-68
2022/10/12 08:38:10;;;;;;;16.42;9.50;;;8.70;99.90;;;;;;5042872;28;20083;-67
2022/10/12 08:40:47;;;;;;;18.88;10.75;;;8.60;99.90;;;;;;5043456;28;20583;-69
2022/10/12 08:43:28;;;;;;;17.45;10.23;;;8.90;99.90;;;;;;5052333;28;20079;-69
2022/10/12 08:46:01;;;;;;;20.13;11.25;;;9.00;99.90;;;;;;5065083;28;20029;-69
2022/10/12 08:48:38;;;;;;;17.10;10.40;;;9.10;99.90;;;;;;5050824;28;20060;-69
2022/10/12 08:51:14;;;;;;;17.85;10.68;;;9.10;99.90;;;;;;5056264;28;20297;-69
2022/10/12 08:53:54;;;;;;;19.63;10.82;;;9.20;99.90;;;;;;5034325;28;20042;-68
2022/10/12 08:56:20;;;;;;;19.55;10.38;;;9.20;99.90;;;;;;5050558;28;20053;-68
2022/10/12 08:58:48;;;;;;;20.95;10.35;;;9.30;99.90;;;;;;5049774;28;20053;-68
2022/10/12 09:01:37;;;;;;;13.65;10.50;;;9.30;99.90;;;;;;5046076;28;20087;-68
2022/10/12 09:04:23;;;;;;;17.05;10.63;;;9.40;99.90;;;;;;5020783;28;20053;-70
2022/10/12 09:06:59;;;;;;;19.25;11.10;;;9.40;99.90;;;;;;5056982;28;20040;-69
2022/10/12 09:09:58;;;;;;;21.63;10.60;;;9.50;99.90;;;;;;5052080;28;20120;-68
2022/10/12 09:12:42;;;;;;;22.95;11.10;;;9.50;99.90;;;;;;5044373;28;20075;-68
2022/10/12 09:15:16;;;;;;;20.58;10.10;;;9.60;99.90;;;;;;5044777;28;20052;-68
2022/10/12 09:17:49;;;;;;;20.20;9.15;;;9.60;99.90;;;;;;5069168;28;20041;-68
2022/10/12 09:20:29;;;;;;;17.98;9.20;;;9.60;99.90;;;;;;5073087;28;20056;-68
2022/10/12 09:23:08;;;;;;;17.02;10.20;;;9.60;99.90;;;;;;5053729;28;20060;-68
2022/10/12 09:25:34;;;;;;;18.75;8.80;;;9.60;99.90;;;;;;5065320;28;20052;-66
2022/10/12 09:28:14;;;;;;;14.18;9.15;;;9.70;99.90;;;;;;5054431;28;20127;-68
2022/10/12 09:30:48;;;;;;;19.05;8.02;;;9.60;99.90;;;;;;5059581;28;20124;-68
2022/10/12 09:33:27;;;;;;;21.65;9.25;;;9.70;99.90;;;;;;5049388;28;20048;-68
2022/10/12 09:35:54;;;;;;;19.10;9.13;;;9.70;99.90;;;;;;5061850;28;20051;-68
2022/10/12 09:38:20;;;;;;;16.88;8.80;;;9.70;99.90;;;;;;5070488;28;20056;-68
2022/10/12 09:40:46;;;;;;;15.15;8.48;;;9.80;99.90;;;;;;5079014;28;20031;-69
2022/10/12 09:43:13;;;;;;;17.75;8.27;;;9.90;99.90;;;;;;5050822;28;20053;-68
2022/10/12 09:45:39;;;;;;;16.73;8.77;;;10.00;99.90;;;;;;5036407;28;20052;-69
2022/10/12 09:48:08;;;;;;;18.85;9.18;;;10.20;99.90;;;;;;5049937;28;20048;-69
2022/10/12 09:50:51;;;;;;;14.50;7.60;;;10.30;99.90;;;;;;5059364;28;20103;-69
2022/10/12 09:53:42;;;;;;;16.95;8.25;;;10.50;99.90;;;;;;5047654;28;20493;-68
2022/10/12 09:56:25;;;;;;;17.27;7.28;;;11.20;99.90;;;;;;5059853;28;20105;-69
2022/10/12 09:58:54;;;;;;;16.00;7.68;;;10.90;99.90;;;;;;5049408;28;20099;-69
2022/10/12 10:01:26;;;;;;;14.30;7.05;;;11.00;99.90;;;;;;5059928;28;20056;-69
2022/10/12 10:04:15;;;;;;;15.77;6.18;;;11.10;99.90;;;;;;5052579;28;20048;-68
2022/10/12 10:06:43;;;;;;;9.85;5.10;;;11.20;99.90;;;;;;5062674;28;20041;-70
2022/10/12 10:09:32;;;;;;;10.63;4.80;;;11.30;99.90;;;;;;5051612;28;20528;-69
2022/10/12 10:12:22;;;;;;;10.85;5.35;;;11.50;99.90;;;;;;5060783;28;20048;-70
2022/10/12 10:14:50;;;;;;;10.77;6.03;;;11.50;99.90;;;;;;5052407;28;20043;-69
2022/10/12 10:17:24;;;;;;;10.55;4.38;;;11.60;99.90;;;;;;5061970;28;20048;-69
2022/10/12 10:19:51;;;;;;;10.18;5.20;;;11.80;99.90;;;;;;5053136;28;20044;-71
2022/10/12 10:22:19;;;;;;;10.88;4.82;;;11.90;99.90;;;;;;5063551;28;20520;-76
2022/10/12 10:24:56;;;;;;;15.25;5.43;;;12.00;99.90;;;;;;5068393;28;20076;-74
2022/10/12 10:27:37;;;;;;;13.80;4.97;;;12.10;99.90;;;;;;5058385;28;20527;-74
2022/10/12 10:30:14;;;;;;;14.57;5.00;;;12.20;99.90;;;;;;5049418;28;20060;-78
2022/10/12 10:32:41;;;;;;;11.55;4.32;;;12.30;99.90;;;;;;5058613;28;20125;-73
2022/10/12 10:35:25;;;;;;;13.77;4.00;;;12.30;99.90;;;;;;5047425;28;20080;-76
2022/10/12 10:38:14;;;;;;;10.55;3.60;;;12.50;99.90;;;;;;5067919;28;20100;-76
2022/10/12 10:41:04;;;;;;;11.52;4.40;;;12.50;99.90;;;;;;5076522;28;20090;-71
2022/10/12 10:43:49;;;;;;;9.55;3.70;;;12.70;99.90;;;;;;5046372;28;20070;-66
2022/10/12 10:46:35;;;;;;;9.63;3.00;;;12.70;99.90;;;;;;5078073;28;20558;-67
2022/10/12 10:49:06;;;;;;;12.25;3.08;;;12.80;99.90;;;;;;5068072;28;20047;-66
2022/10/12 10:52:01;;;;;;;;;;;12.80;99.90;;;;;;5076985;28;20047;-66
2022/10/12 10:54:33;;;;;;;12.68;2.92;;;12.80;99.90;;;;;;5032730;28;19921;-67
2022/10/12 10:57:21;;;;;;;10.13;3.30;;;12.90;99.90;;;;;;5059054;28;20056;-66
2022/10/12 10:59:55;;;;;;;8.90;3.40;;;13.00;99.90;;;;;;5059177;28;20056;-66
2022/10/12 11:02:35;;;;;;;10.73;3.35;;;13.10;99.90;;;;;;5079447;28;20390;-66
2022/10/12 11:05:28;;;;;;;11.48;3.85;;;13.30;99.90;;;;;;5067157;28;20084;-67
2022/10/12 11:08:04;;;;;;;10.68;2.97;;;11.70;99.90;;;;;;5047558;28;20109;-66
2022/10/12 11:10:41;;;;;;;10.93;2.95;;;13.40;99.90;;;;;;5057406;28;20061;-67
2022/10/12 11:13:16;;;;;;;9.15;3.05;;;13.60;99.90;;;;;;5071271;28;20040;-67
2022/10/12 11:16:08;;;;;;;7.45;3.03;;;13.70;99.90;;;;;;5080304;28;20120;-66
2022/10/12 11:18:44;;;;;;;13.00;4.10;;;13.70;99.90;;;;;;5062444;28;20044;-66
2022/10/12 11:21:37;;;;;;;11.10;4.05;;;13.70;99.90;;;;;;5077148;28;20151;-66
2022/10/12 11:24:41;;;;;;;12.40;3.97;;;13.80;99.90;;;;;;5068073;28;20052;-67
2022/10/12 11:27:19;;;;;;;10.32;3.67;;;13.90;99.90;;;;;;5058871;28;20174;-67
2022/10/12 11:29:45;;;;;;;9.98;4.40;;;14.00;99.90;;;;;;5068025;28;20083;-66
2022/10/12 11:32:25;;;;;;;9.75;4.10;;;14.10;99.90;;;;;;5064131;28;20052;-67
2022/10/12 11:34:56;;;;;;;17.10;5.15;;;14.20;99.90;;;;;;5066270;28;20207;-66
2022/10/12 11:37:50;;;;;;;12.05;3.50;;;14.20;99.90;;;;;;5074344;28;20144;-66
2022/10/12 11:40:22;;;;;;;7.43;3.60;;;14.20;99.90;;;;;;5020928;28;20052;-67
2022/10/12 11:42:50;;;;;;;12.02;4.30;;;14.40;99.90;;;;;;5077058;28;20104;-67
2022/10/12 11:45:33;;;;;;;8.75;3.45;;;14.50;99.90;;;;;;5045586;28;20134;-68
2022/10/12 11:48:08;;;;;;;7.28;3.67;;;14.50;99.90;;;;;;5076664;28;20052;-67
2022/10/12 11:50:38;;;;;;;10.63;4.38;;;14.60;99.90;;;;;;5064825;28;20080;-67
2022/10/12 11:53:26;;;;;;;8.63;3.53;;;14.80;99.90;;;;;;5061113;28;20534;-67
2022/10/12 11:56:11;;;;;;;9.10;3.70;;;14.90;99.90;;;;;;5064627;28;20057;-66
2022/10/12 11:58:41;;;;;;;8.75;2.80;;;14.80;99.90;;;;;;5068657;28;20052;-67
2022/10/12 12:01:23;;;;;;;9.43;2.85;;;15.40;99.90;;;;;;5059151;28;20040;-66
2022/10/12 12:04:24;;;;;;;7.78;1.95;;;15.50;99.90;;;;;;5067743;28;20536;-67
2022/10/12 12:06:56;;;;;;;8.77;3.33;;;15.50;99.90;;;;;;4996102;28;20089;-67
2022/10/12 12:09:38;;;;;;;6.70;2.70;;;15.70;99.90;;;;;;4987197;28;20372;-67
2022/10/12 12:12:14;;;;;;;8.45;2.83;;;15.90;99.90;;;;;;4997872;28;20564;-67
2022/10/12 12:14:51;;;;;;;7.07;2.65;;;16.20;99.90;;;;;;5003645;28;20120;-67
2022/10/12 12:17:23;;;;;;;6.28;2.08;;;16.30;99.90;;;;;;5013520;28;20037;-67
2022/10/12 12:19:52;;;;;;;10.43;2.60;;;16.40;99.90;;;;;;5006490;28;20077;-67
2022/10/12 12:22:25;;;;;;;7.20;2.67;;;16.60;99.90;;;;;;5016047;28;20049;-67
2022/10/12 12:25:37;;;;;;;7.63;2.65;;;16.70;99.90;;;;;;4988101;28;20061;-67
2022/10/12 12:28:20;;;;;;;7.45;2.60;;;17.30;99.90;;;;;;4998123;28;20119;-67
2022/10/12 12:31:03;;;;;;;6.35;2.38;;;17.80;99.90;;;;;;4973996;28;20073;-66
2022/10/12 12:33:34;;;;;;;9.63;2.83;;;18.00;99.90;;;;;;5006853;28;20111;-67
2022/10/12 12:36:09;;;;;;;6.50;2.50;;;18.20;99.90;;;;;;5008049;28;20045;-67
2022/10/12 12:38:45;;;;;;;9.15;2.55;;;18.30;99.90;;;;;;4991062;28;20151;-68
2022/10/12 12:41:14;;;;;;;6.85;2.28;;;18.90;99.90;;;;;;5053606;28;20626;-67
2022/10/12 12:44:01;;;;;;;6.35;2.22;;;19.50;99.90;;;;;;5052374;28;20045;-67
2022/10/12 12:46:55;;;;;;;8.88;3.35;;;20.10;99.90;;;;;;5072469;28;20055;-68
2022/10/12 12:49:25;;;;;;;7.00;2.42;;;21.20;97.80;;;;;;5066054;28;20060;-68
2022/10/12 12:51:53;;;;;;;8.68;2.75;;;21.40;98.30;;;;;;5062569;28;20040;-67
2022/10/12 12:54:21;;;;;;;7.20;2.50;;;21.60;95.90;;;;;;5068818;28;20078;-67
2022/10/12 12:57:14;;;;;;;9.27;2.80;;;21.80;95.60;;;;;;5078754;28;20084;-67
2022/10/12 12:59:45;;;;;;;8.43;2.78;;;22.60;96.00;;;;;;5062353;28;20448;-67
2022/10/12 13:02:36;;;;;;;5.72;2.63;;;23.10;95.80;;;;;;5049485;28;20080;-68
2022/10/12 13:05:26;;;;;;;8.65;3.08;;;23.50;95.10;;;;;;5042606;28;20056;-67
2022/10/12 13:08:00;;;;;;;8.07;2.63;;;23.70;94.20;;;;;;5057704;28;20045;-68
2022/10/12 13:10:54;;;;;;;8.07;2.63;;;24.20;93.90;;;;;;5060448;28;20056;-68
2022/10/12 13:13:44;;;;;;;6.50;3.38;;;24.50;92.40;;;;;;5080704;28;20043;-67